Time;durP1;ratioP1;P1;durP2;ratioP2;P2;SDS_P1;SDS_P2;PMS_P1;PMS_P2;Temp;Humidity;BMP_temperature;BMP_pressure;BME280_temperature;BME280_humidity;BME280_pressure;Samples;Min_cycle;Max_cycle;Signal;HPM_P1;HPM_P2
2021/04/02 00:02:17;;;;;;;10.35;4.88;;;;;;;10.71;100.00;96323.03;5035625;28;20089;-51
2021/04/02 00:04:44;;;;;;;11.73;4.63;;;;;;;10.73;100.00;96318.41;5000449;28;20073;-53
2021/04/02 00:07:12;;;;;;;10.13;4.68;;;;;;;10.60;100.00;96323.25;5029853;28;20072;-49
2021/04/02 00:09:39;;;;;;;12.85;5.00;;;;;;;10.65;100.00;96320.97;5023891;28;20080;-48
2021/04/02 00:12:08;;;;;;;11.63;5.72;;;;;;;10.60;100.00;96318.78;5004748;28;20066;-51
2021/04/02 00:14:36;;;;;;;10.23;5.07;;;;;;;10.62;100.00;96316.81;5033254;28;20663;-46
2021/04/02 00:17:04;;;;;;;11.00;4.72;;;;;;;10.70;100.00;96316.06;5013333;28;20484;-50
2021/04/02 00:19:32;;;;;;;11.82;5.18;;;;;;;10.50;100.00;96320.66;5026889;28;20063;-48
2021/04/02 00:22:00;;;;;;;11.45;5.15;;;;;;;10.60;100.00;96318.78;5007443;28;20076;-51
2021/04/02 00:24:27;;;;;;;10.50;4.60;;;;;;;10.69;100.00;96317.88;5031794;28;20065;-49
2021/04/02 00:26:56;;;;;;;9.63;5.10;;;;;;;11.05;100.00;96314.47;5002500;28;20085;-49
2021/04/02 00:29:23;;;;;;;10.75;5.35;;;;;;;11.07;100.00;96309.84;5026904;28;20131;-48
2021/04/02 00:31:51;;;;;;;11.95;5.22;;;;;;;10.81;100.00;96305.34;5000821;28;20118;-49
2021/04/02 00:34:18;;;;;;;10.25;5.40;;;;;;;10.76;100.00;96310.22;5029971;28;20080;-48
2021/04/02 00:36:46;;;;;;;10.55;5.45;;;;;;;10.68;100.00;96302.22;5007846;28;20076;-50
2021/04/02 00:39:14;;;;;;;14.23;5.57;;;;;;;10.95;100.00;96308.44;5024008;28;20080;-48
2021/04/02 00:41:41;;;;;;;14.73;5.85;;;;;;;10.92;100.00;96305.09;5006538;28;20085;-49
2021/04/02 00:44:09;;;;;;;10.52;4.88;;;;;;;10.66;100.00;96309.44;5026242;28;20084;-49
2021/04/02 00:46:36;;;;;;;10.18;5.00;;;;;;;10.60;100.00;96307.41;4999663;28;20475;-51
2021/04/02 00:49:04;;;;;;;12.05;5.50;;;;;;;10.52;100.00;96297.59;5034059;28;20073;-48
2021/04/02 00:51:36;;;;;;;11.00;5.10;;;;;;;10.88;100.00;96301.09;4996622;28;20041;-48
2021/04/02 00:54:05;;;;;;;9.02;5.32;;;;;;;10.77;100.00;96300.47;5022660;28;20065;-50
2021/04/02 00:56:33;;;;;;;13.25;5.90;;;;;;;10.80;100.00;96300.19;5011362;28;20076;-47
2021/04/02 00:59:00;;;;;;;16.55;6.22;;;;;;;11.04;100.00;96292.50;5019252;28;20065;-51
2021/04/02 01:01:28;;;;;;;13.50;6.50;;;;;;;10.56;100.00;96295.50;5029919;28;20069;-54
2021/04/02 01:03:55;;;;;;;12.35;6.32;;;;;;;10.54;100.00;96294.81;5009357;28;20072;-51
2021/04/02 01:06:26;;;;;;;13.13;6.40;;;;;;;10.58;100.00;96297.00;5022736;28;20064;-50
2021/04/02 01:08:54;;;;;;;20.02;7.20;;;;;;;10.65;100.00;96298.06;4988747;28;20081;-53
2021/04/02 01:11:25;;;;;;;13.02;6.97;;;;;;;10.64;100.00;96301.69;5036728;28;20033;-48
2021/04/02 01:13:53;;;;;;;;;;;;;;;10.58;100.00;96302.28;5001956;28;20473;-51
2021/04/02 01:16:22;;;;;;;16.23;7.00;;;;;;;10.75;100.00;96292.72;5022229;28;19964;-48
2021/04/02 01:18:52;;;;;;;18.85;8.30;;;;;;;10.64;100.00;96306.16;5009434;28;20068;-47
2021/04/02 01:21:24;;;;;;;17.42;8.32;;;;;;;10.56;100.00;96306.84;5028189;28;20087;-48
2021/04/02 01:24:05;;;;;;;13.75;8.23;;;;;;;10.56;100.00;96304.22;5009345;28;20091;-49
2021/04/02 01:26:50;;;;;;;17.00;7.88;;;;;;;10.59;100.00;96300.47;5033982;28;20509;-50
2021/04/02 01:29:22;;;;;;;25.20;10.15;;;;;;;10.52;100.00;96305.50;4996383;28;20065;-50
2021/04/02 01:31:52;;;;;;;23.60;10.13;;;;;;;10.56;100.00;96306.03;5029581;28;20076;-47
2021/04/02 01:34:22;;;;;;;23.65;10.98;;;;;;;10.52;100.00;96304.69;5003154;28;20056;-55
2021/04/02 01:36:51;;;;;;;28.27;10.63;;;;;;;10.51;100.00;96309.13;5023373;28;20077;-49
2021/04/02 01:39:20;;;;;;;24.25;11.15;;;;;;;10.56;100.00;96308.66;5005138;28;20099;-47
2021/04/02 01:41:50;;;;;;;21.42;11.43;;;;;;;10.46;100.00;96306.13;5030919;28;20160;-48
2021/04/02 01:44:19;;;;;;;21.23;9.35;;;;;;;10.34;100.00;96304.66;5003507;28;20478;-50
2021/04/02 01:46:47;;;;;;;18.40;10.02;;;;;;;10.09;100.00;96306.13;5041327;28;20075;-51
2021/04/02 01:49:14;;;;;;;18.85;10.48;;;;;;;10.10;100.00;96302.50;4998384;28;20069;-52
2021/04/02 01:51:43;;;;;;;25.45;11.50;;;;;;;9.94;100.00;96305.75;5035878;28;20072;-47
2021/04/02 01:54:11;;;;;;;20.08;11.30;;;;;;;9.69;100.00;96302.78;5001045;28;20060;-48
2021/04/02 01:56:39;;;;;;;24.98;12.18;;;;;;;9.48;100.00;96312.69;5020167;28;20088;-50
2021/04/02 01:59:08;;;;;;;27.13;13.45;;;;;;;9.54;100.00;96311.28;5010957;28;20085;-50
2021/04/02 02:01:38;;;;;;;28.48;14.98;;;;;;;9.51;100.00;96307.97;5017815;28;20077;-51
2021/04/02 02:04:07;;;;;;;26.38;13.10;;;;;;;9.34;100.00;96308.69;5024776;28;20484;-50
2021/04/02 02:06:35;;;;;;;34.80;16.85;;;;;;;9.36;100.00;96292.75;5019895;28;20075;-48
2021/04/02 02:09:10;;;;;;;37.05;18.77;;;;;;;9.37;100.00;96300.50;5013720;28;20069;-50
2021/04/02 02:11:39;;;;;;;45.45;21.48;;;;;;;9.41;100.00;96303.69;4999638;28;20073;-53
2021/04/02 02:14:09;;;;;;;49.65;23.08;;;;;;;9.41;100.00;96304.50;5023806;28;20118;-49
2021/04/02 02:16:40;;;;;;;44.78;23.58;;;;;;;9.42;100.00;96305.34;5000261;28;20060;-51
2021/04/02 02:19:10;;;;;;;49.90;24.95;;;;;;;9.39;100.00;96308.25;5022062;28;20459;-50
2021/04/02 02:21:40;;;;;;;54.23;25.53;;;;;;;9.38;100.00;96307.41;5010645;28;20075;-46
2021/04/02 02:24:09;;;;;;;58.78;25.35;;;;;;;9.08;100.00;96308.41;5022874;28;20548;-49
2021/04/02 02:26:37;;;;;;;52.30;24.63;;;;;;;9.14;100.00;96317.56;4991624;28;20100;-51
2021/04/02 02:29:04;;;;;;;54.15;24.40;;;;;;;8.96;100.00;96322.69;5027011;28;20075;-49
2021/04/02 02:31:32;;;;;;;49.97;24.40;;;;;;;8.91;100.00;96317.00;4996784;28;20057;-48
2021/04/02 02:34:01;;;;;;;52.33;24.23;;;;;;;9.09;100.00;96323.25;5029384;28;20073;-52
2021/04/02 02:36:29;;;;;;;44.95;21.48;;;;;;;8.83;100.00;96324.75;5007933;28;20519;-51
2021/04/02 02:38:57;;;;;;;47.97;23.13;;;;;;;8.75;100.00;96323.63;5022174;28;20129;-49
2021/04/02 02:41:26;;;;;;;49.75;24.90;;;;;;;8.81;100.00;96327.53;4989437;28;20500;-48
2021/04/02 02:43:54;;;;;;;53.22;25.38;;;;;;;8.80;100.00;96326.66;5026977;28;20072;-49
2021/04/02 02:46:21;;;;;;;51.33;24.70;;;;;;;8.89;100.00;96329.47;5007259;28;20068;-51
2021/04/02 02:48:53;;;;;;;52.55;23.40;;;;;;;8.55;100.00;96327.19;5039145;28;20072;-51
2021/04/02 02:51:22;;;;;;;45.70;21.95;;;;;;;8.49;100.00;96325.09;4994326;28;23313;-49
2021/04/02 02:53:50;;;;;;;48.97;24.48;;;;;;;8.64;100.00;96325.56;5027711;28;20084;-48
2021/04/02 02:56:18;;;;;;;58.30;26.20;;;;;;;8.77;100.00;96324.34;5007259;28;20073;-48
2021/04/02 02:58:47;;;;;;;52.65;25.63;;;;;;;8.73;100.00;96319.47;5020644;28;20065;-49
2021/04/02 03:01:15;;;;;;;55.47;26.30;;;;;;;8.76;100.00;96325.28;5019589;28;20066;-50
2021/04/02 03:03:43;;;;;;;46.28;22.80;;;;;;;8.71;100.00;96329.31;5003233;28;20064;-47
2021/04/02 03:06:12;;;;;;;50.88;24.85;;;;;;;8.66;100.00;96334.13;5025026;28;20084;-49
2021/04/02 03:08:45;;;;;;;49.15;24.45;;;;;;;8.68;100.00;96340.09;5000150;28;20535;-50
2021/04/02 03:11:13;;;;;;;48.88;25.88;;;;;;;8.66;100.00;96334.13;5036152;28;20072;-49
2021/04/02 03:13:41;;;;;;;48.42;24.25;;;;;;;8.63;100.00;96339.66;4998057;28;20044;-52
2021/04/02 03:16:10;;;;;;;49.92;24.52;;;;;;;8.70;100.00;96344.22;5028260;28;20065;-49
2021/04/02 03:18:37;;;;;;;53.83;25.25;;;;;;;8.63;100.00;96347.53;5001267;28;20057;-49
2021/04/02 03:21:06;;;;;;;53.13;25.98;;;;;;;8.61;100.00;96345.06;5020023;28;20069;-47
2021/04/02 03:23:34;;;;;;;48.83;25.33;;;;;;;8.54;100.00;96342.16;5008987;28;20077;-47
2021/04/02 03:26:03;;;;;;;51.53;26.20;;;;;;;8.42;100.00;96345.00;5020766;28;20487;-48
2021/04/02 03:28:31;;;;;;;55.25;26.65;;;;;;;8.40;100.00;96357.47;4997981;28;20073;-49
2021/04/02 03:30:59;;;;;;;51.20;25.02;;;;;;;8.49;100.00;96351.38;5019619;28;20076;-51
2021/04/02 03:33:28;;;;;;;52.85;26.67;;;;;;;8.33;100.00;96357.13;4998697;28;20080;-52
2021/04/02 03:35:58;;;;;;;55.75;26.40;;;;;;;8.43;100.00;96347.50;5022323;28;20558;-48
2021/04/02 03:38:29;;;;;;;51.47;26.83;;;;;;;8.51;100.00;96342.41;5004186;28;20072;-49
2021/04/02 03:41:00;;;;;;;53.00;26.42;;;;;;;8.65;100.00;96349.09;5020609;28;20697;-50
2021/04/02 03:43:29;;;;;;;;;;;;;;;8.46;100.00;96349.84;5009242;28;20041;-47
2021/04/02 03:45:57;;;;;;;58.97;29.17;;;;;;;8.47;100.00;96356.78;5036858;28;20449;-51
2021/04/02 03:48:25;;;;;;;67.00;29.67;;;;;;;8.55;100.00;96345.59;4999272;28;20061;-49
2021/04/02 03:50:55;;;;;;;68.05;32.15;;;;;;;8.58;100.00;96349.75;5029253;28;20456;-48
2021/04/02 03:53:25;;;;;;;57.90;29.25;;;;;;;8.51;100.00;96349.47;5018149;28;20088;-49
2021/04/02 03:55:54;;;;;;;65.88;30.35;;;;;;;8.58;100.00;96352.38;5020554;28;20076;-50
2021/04/02 03:58:22;;;;;;;65.22;32.22;;;;;;;8.52;100.00;96354.56;5026438;28;20531;-49
2021/04/02 04:00:55;;;;;;;58.38;30.38;;;;;;;8.48;100.00;96352.38;5007894;28;20071;-49
2021/04/02 04:03:22;;;;;;;63.42;31.40;;;;;;;8.49;100.00;96357.47;5019627;28;20061;-47
2021/04/02 04:05:54;;;;;;;65.78;31.30;;;;;;;8.48;100.00;96362.88;5010630;28;20472;-51
2021/04/02 04:08:22;;;;;;;59.67;31.00;;;;;;;8.48;100.00;96362.88;5021943;28;20084;-50
2021/04/02 04:10:49;;;;;;;63.17;31.50;;;;;;;8.43;100.00;96365.91;4993829;28;20054;-48
2021/04/02 04:13:19;;;;;;;63.35;31.10;;;;;;;8.36;100.00;96369.16;5037001;28;20539;-48
2021/04/02 04:15:47;;;;;;;55.45;28.00;;;;;;;8.22;100.00;96375.59;5001658;28;20558;-48
2021/04/02 04:18:17;;;;;;;51.33;27.90;;;;;;;8.24;100.00;96369.25;5035777;28;20627;-48
2021/04/02 04:20:45;;;;;;;51.55;25.85;;;;;;;8.19;100.00;96368.84;5006570;28;20072;-51
2021/04/02 04:23:13;;;;;;;54.95;27.73;;;;;;;8.07;100.00;96362.00;5031648;28;20089;-49
2021/04/02 04:25:41;;;;;;;53.63;27.60;;;;;;;7.93;100.00;96375.47;5005956;28;20069;-51
2021/04/02 04:28:11;;;;;;;59.83;28.48;;;;;;;8.04;100.00;96376.22;5025774;28;20536;-50
2021/04/02 04:30:38;;;;;;;54.95;28.77;;;;;;;8.00;100.00;96376.63;5011775;28;20523;-50
2021/04/02 04:33:07;;;;;;;61.95;32.67;;;;;;;8.08;100.00;96379.41;5031390;28;20064;-48
2021/04/02 04:35:36;;;;;;;71.88;36.38;;;;;;;8.16;100.00;96376.97;5002052;28;20451;-50
2021/04/02 04:38:04;;;;;;;75.05;35.55;;;;;;;8.18;100.00;96375.03;5024371;28;20069;-51
2021/04/02 04:40:32;;;;;;;72.20;35.72;;;;;;;8.24;100.00;96374.50;5002897;28;22748;-50
2021/04/02 04:43:00;;;;;;;72.75;36.53;;;;;;;8.16;100.00;96381.41;5021575;28;20098;-51
2021/04/02 04:45:28;;;;;;;73.75;36.70;;;;;;;8.11;100.00;96381.78;5025927;28;20081;-50
2021/04/02 04:47:56;;;;;;;79.78;37.85;;;;;;;8.12;100.00;96374.72;5033269;28;20080;-48
2021/04/02 04:50:23;;;;;;;75.60;39.10;;;;;;;8.14;100.00;96386.78;5030350;28;20072;-48
2021/04/02 04:52:53;;;;;;;78.20;39.00;;;;;;;8.10;100.00;96390.63;5015075;28;20464;-49
2021/04/02 04:55:21;;;;;;;79.18;39.40;;;;;;;8.13;100.00;96389.53;5024140;28;20061;-47
2021/04/02 04:57:50;;;;;;;67.38;34.55;;;;;;;7.86;100.00;96398.78;4996259;28;20061;-48
2021/04/02 05:00:18;;;;;;;76.63;36.65;;;;;;;7.98;100.00;96399.53;5023748;28;20076;-50
2021/04/02 05:02:47;;;;;;;65.43;36.25;;;;;;;7.90;100.00;96405.44;4995249;28;20077;-51
2021/04/02 05:05:20;;;;;;;81.32;38.55;;;;;;;8.02;100.00;96404.41;5037175;28;20453;-48
2021/04/02 05:07:50;;;;;;;76.43;38.63;;;;;;;8.02;100.00;96411.47;5008138;28;20123;-47
2021/04/02 05:10:19;;;;;;;78.03;37.65;;;;;;;8.01;100.00;96401.91;5017373;28;20460;-48
2021/04/02 05:12:48;;;;;;;76.18;37.55;;;;;;;8.08;100.00;96413.53;5002627;28;20088;-46
2021/04/02 05:15:16;;;;;;;67.75;36.95;;;;;;;8.09;100.00;96410.81;5021240;28;20079;-48
2021/04/02 05:17:49;;;;;;;67.28;35.45;;;;;;;8.06;100.00;96421.56;5004211;28;20116;-48
2021/04/02 05:20:18;;;;;;;76.13;38.60;;;;;;;8.25;100.00;96422.63;5041243;28;20077;-48
2021/04/02 05:22:45;;;;;;;72.97;37.40;;;;;;;8.34;100.00;96416.59;5006500;28;20064;-50
2021/04/02 05:25:14;;;;;;;67.13;33.95;;;;;;;8.17;100.00;96423.28;5029634;28;20080;-47
2021/04/02 05:27:42;;;;;;;73.47;36.75;;;;;;;8.44;100.00;96421.94;5005994;28;20409;-48
2021/04/02 05:30:10;;;;;;;68.75;36.47;;;;;;;8.60;100.00;96421.41;5020627;28;20065;-47
2021/04/02 05:32:38;;;;;;;62.22;31.90;;;;;;;8.53;100.00;96431.63;5009061;28;20062;-49
2021/04/02 05:35:06;;;;;;;68.30;35.33;;;;;;;8.62;100.00;96430.00;5035708;28;20535;-48
2021/04/02 05:37:34;;;;;;;71.90;34.08;;;;;;;8.63;100.00;96432.50;5001711;28;20080;-49
2021/04/02 05:40:01;;;;;;;61.42;33.83;;;;;;;8.60;100.00;96429.28;5036258;28;20077;-47
2021/04/02 05:42:29;;;;;;;59.03;31.23;;;;;;;8.89;100.00;96437.28;5029674;28;20082;-51
2021/04/02 05:44:59;;;;;;;54.17;30.48;;;;;;;8.98;100.00;96444.34;5001820;28;21665;-48
2021/04/02 05:47:27;;;;;;;49.38;28.08;;;;;;;8.72;100.00;96444.84;5021379;28;20081;-47
2021/04/02 05:49:56;;;;;;;50.55;28.48;;;;;;;8.83;100.00;96450.97;5002466;28;20061;-50
2021/04/02 05:52:25;;;;;;;48.47;28.42;;;;;;;9.11;100.00;96450.19;5016593;28;20073;-54
2021/04/02 05:54:53;;;;;;;46.45;26.13;;;;;;;9.17;100.00;96448.81;4993039;28;20516;-47
2021/04/02 05:57:20;;;;;;;49.13;28.73;;;;;;;9.46;100.00;96454.09;5022951;28;20487;-46
2021/04/02 05:59:48;;;;;;;45.72;27.65;;;;;;;9.36;100.00;96448.00;4994012;28;20092;-49
2021/04/02 06:02:17;;;;;;;48.25;27.10;;;;;;;9.22;100.00;96446.59;5026118;28;20502;-52
2021/04/02 06:04:44;;;;;;;63.67;33.65;;;;;;;9.48;100.00;96454.81;5001744;28;20068;-47
2021/04/02 06:07:12;;;;;;;48.72;27.60;;;;;;;9.39;100.00;96456.44;5033090;28;20076;-48
2021/04/02 06:09:39;;;;;;;45.50;28.35;;;;;;;9.40;100.00;96462.56;5001496;28;20447;-47
2021/04/02 06:12:08;;;;;;;50.35;28.33;;;;;;;9.45;100.00;96461.19;5021018;28;20104;-48
2021/04/02 06:14:36;;;;;;;42.53;26.02;;;;;;;9.74;100.00;96460.38;4995648;28;20093;-48
2021/04/02 06:17:04;;;;;;;37.50;23.02;;;;;;;9.66;100.00;96460.22;5029704;28;21560;-50
2021/04/02 06:19:32;;;;;;;41.60;25.05;;;;;;;9.74;100.00;96463.84;5001265;28;20068;-48
2021/04/02 06:21:59;;;;;;;37.90;23.85;;;;;;;9.97;100.00;96463.53;5025710;28;20069;-46
2021/04/02 06:24:38;;;;;;;36.90;20.63;;;;;;;9.76;100.00;96468.94;5011784;28;20073;-50
2021/04/02 06:27:08;;;;;;;37.78;21.58;;;;;;;9.63;100.00;96466.59;5024695;28;20546;-50
2021/04/02 06:29:37;;;;;;;41.50;23.63;;;;;;;9.71;100.00;96466.75;5005904;28;20429;-48
2021/04/02 06:32:07;;;;;;;39.88;23.48;;;;;;;10.15;100.00;96464.47;5018275;28;21540;-50
2021/04/02 06:34:44;;;;;;;36.63;23.02;;;;;;;10.34;100.00;96468.88;5017210;28;20081;-46
2021/04/02 06:37:11;;;;;;;36.53;23.05;;;;;;;10.28;100.00;96468.63;5024886;28;20076;-48
2021/04/02 06:39:39;;;;;;;35.58;22.65;;;;;;;10.84;100.00;96460.66;5015591;28;20064;-49
2021/04/02 06:42:10;;;;;;;38.88;23.48;;;;;;;10.69;100.00;96459.47;4992782;28;20512;-48
2021/04/02 06:44:37;;;;;;;39.03;22.00;;;;;;;10.49;100.00;96465.78;5026930;28;20507;-51
2021/04/02 06:47:06;;;;;;;35.40;23.25;;;;;;;10.29;100.00;96462.38;5006830;28;20411;-52
2021/04/02 06:49:35;;;;;;;35.70;23.40;;;;;;;10.08;100.00;96462.53;5021044;28;20066;-48
2021/04/02 06:52:02;;;;;;;35.17;22.38;;;;;;;9.73;100.00;96470.03;5001000;28;20053;-50
2021/04/02 06:54:31;;;;;;;35.55;21.65;;;;;;;9.80;100.00;96467.69;5029626;28;20533;-51
2021/04/02 06:57:03;;;;;;;30.45;20.73;;;;;;;9.86;100.00;96471.59;4999787;28;20069;-50
2021/04/02 06:59:32;;;;;;;35.50;21.48;;;;;;;9.89;100.00;96464.22;5012864;28;20069;-51
2021/04/02 07:02:01;;;;;;;32.70;20.67;;;;;;;10.27;100.00;96475.72;5008217;28;20063;-51
2021/04/02 07:04:30;;;;;;;35.85;21.25;;;;;;;10.15;100.00;96467.13;5011571;28;20293;-53
2021/04/02 07:07:00;;;;;;;30.48;20.65;;;;;;;10.10;100.00;96464.06;4995391;28;20380;-49
2021/04/02 07:09:28;;;;;;;32.78;20.90;;;;;;;9.96;100.00;96475.03;5012570;28;20468;-50
2021/04/02 07:12:00;;;;;;;31.10;20.63;;;;;;;10.20;100.00;96471.94;4992960;28;20093;-48
2021/04/02 07:14:30;;;;;;;29.58;19.27;;;;;;;10.27;100.00;96470.44;5029189;28;20076;-53
2021/04/02 07:16:59;;;;;;;28.70;18.35;;;;;;;10.42;100.00;96469.00;4998644;28;20508;-47
2021/04/02 07:19:27;;;;;;;26.77;18.63;;;;;;;10.31;100.00;96468.34;5020770;28;20531;-49
2021/04/02 07:21:55;;;;;;;24.52;17.20;;;;;;;10.45;100.00;96471.34;4999181;28;20069;-46
2021/04/02 07:24:23;;;;;;;31.30;19.77;;;;;;;10.52;100.00;96462.88;5024414;28;20062;-48
2021/04/02 07:26:51;;;;;;;27.38;18.75;;;;;;;10.95;100.00;96469.38;5000335;28;20080;-50
2021/04/02 07:29:20;;;;;;;23.50;14.20;;;;;;;10.77;100.00;96472.78;5025898;28;20064;-51
2021/04/02 07:31:48;;;;;;;24.02;15.35;;;;;;;10.86;100.00;96463.16;5018264;28;20889;-50
2021/04/02 07:34:17;;;;;;;26.42;15.75;;;;;;;10.83;100.00;96466.06;5009381;28;20068;-53
2021/04/02 07:36:47;;;;;;;17.20;11.27;;;;;;;11.02;100.00;96470.44;5028870;28;20427;-48
2021/04/02 07:39:19;;;;;;;16.48;11.65;;;;;;;10.97;96.83;96470.88;5005479;28;20539;-48
2021/04/02 07:41:49;;;;;;;16.38;10.88;;;;;;;10.71;96.54;96473.34;5023956;28;20064;-50
2021/04/02 07:44:18;;;;;;;18.08;12.05;;;;;;;11.01;97.61;96477.53;4996843;28;20067;-49
2021/04/02 07:47:07;;;;;;;18.52;13.18;;;;;;;11.49;90.58;96478.19;5021601;28;20523;-48
2021/04/02 07:49:38;;;;;;;17.30;11.85;;;;;;;11.51;89.24;96481.53;4998254;28;20073;-48
2021/04/02 07:52:07;;;;;;;16.35;11.25;;;;;;;11.51;88.15;96481.53;5019550;28;20147;-52
2021/04/02 07:54:36;;;;;;;17.60;12.13;;;;;;;11.67;85.99;96483.50;4997485;28;20065;-51
2021/04/02 07:57:08;;;;;;;15.32;11.73;;;;;;;11.41;88.30;96478.94;5021698;28;20073;-49
2021/04/02 07:59:37;;;;;;;18.83;11.48;;;;;;;11.34;86.29;96491.09;4998360;28;20068;-49
2021/04/02 08:02:06;;;;;;;52.78;30.50;;;;;;;11.62;84.33;96489.22;5022510;28;20414;-52
2021/04/02 08:04:37;;;;;;;20.10;12.30;;;;;;;11.57;82.64;96488.84;5004429;28;20057;-48
2021/04/02 08:07:10;;;;;;;16.83;12.20;;;;;;;11.31;86.58;96491.38;5039583;28;20064;-53
2021/04/02 08:09:41;;;;;;;16.63;11.70;;;;;;;11.60;79.38;96491.19;5001681;28;20087;-50
2021/04/02 08:12:30;;;;;;;16.42;12.15;;;;;;;11.64;82.13;96490.75;5024983;28;20435;-52
2021/04/02 08:15:04;;;;;;;14.48;11.90;;;;;;;12.00;79.41;96501.31;5007409;28;20057;-49
2021/04/02 08:17:32;;;;;;;14.75;11.50;;;;;;;12.20;78.10;96504.63;5028459;28;20081;-50
2021/04/02 08:20:05;;;;;;;12.85;10.55;;;;;;;12.13;76.60;96500.13;4998112;28;20143;-52
2021/04/02 08:22:32;;;;;;;16.15;11.18;;;;;;;12.15;76.34;96496.34;5041256;28;20427;-50
2021/04/02 08:25:01;;;;;;;14.77;11.23;;;;;;;12.38;75.80;96499.31;5003178;28;20057;-53
2021/04/02 08:27:32;;;;;;;14.27;11.85;;;;;;;11.67;79.14;96500.19;5042309;28;20065;-51
2021/04/02 08:30:04;;;;;;;15.27;12.02;;;;;;;11.78;81.82;96496.47;4986922;28;20072;-55
2021/04/02 08:32:35;;;;;;;18.42;12.20;;;;;;;11.93;80.13;96504.72;5032572;28;20077;-50
2021/04/02 08:35:04;;;;;;;16.52;11.98;;;;;;;12.19;78.13;96502.97;4999985;28;20463;-49
2021/04/02 08:37:31;;;;;;;16.25;12.25;;;;;;;12.32;75.71;96502.59;5029430;28;20065;-49
2021/04/02 08:40:00;;;;;;;15.05;11.63;;;;;;;12.21;76.12;96497.53;5005701;28;20527;-50
2021/04/02 08:42:29;;;;;;;15.65;11.95;;;;;;;12.16;76.30;96505.09;5035041;28;20052;-51
2021/04/02 08:44:57;;;;;;;16.88;11.73;;;;;;;12.22;72.96;96500.03;4980084;28;20074;-48
2021/04/02 08:47:25;;;;;;;15.27;10.77;;;;;;;12.25;73.63;96502.38;5032836;28;20085;-51
2021/04/02 08:49:54;;;;;;;14.30;11.05;;;;;;;12.28;72.25;96501.22;5014699;28;20075;-47
2021/04/02 08:52:23;;;;;;;14.77;11.77;;;;;;;12.09;75.13;96503.06;5012040;28;20475;-52
2021/04/02 08:54:53;;;;;;;16.70;11.93;;;;;;;12.20;74.19;96499.34;5036935;28;20076;-48
2021/04/02 08:57:23;;;;;;;14.82;11.55;;;;;;;12.52;70.74;96495.25;5007639;28;20065;-50
2021/04/02 08:59:51;;;;;;;15.60;11.88;;;;;;;12.60;72.46;96497.97;5030556;28;20062;-50
2021/04/02 09:02:19;;;;;;;14.85;11.80;;;;;;;12.80;70.40;96498.56;4995233;28;20088;-53
2021/04/02 09:04:48;;;;;;;16.55;11.68;;;;;;;13.09;67.45;96492.09;5022816;28;20069;-49
2021/04/02 09:07:16;;;;;;;16.48;11.75;;;;;;;13.25;65.57;96487.72;5001158;28;20096;-50
2021/04/02 09:09:46;;;;;;;14.73;11.20;;;;;;;13.35;62.88;96490.25;5020939;28;20455;-48
2021/04/02 09:12:15;;;;;;;15.33;11.87;;;;;;;13.19;65.25;96488.31;5001628;28;20512;-48
2021/04/02 09:14:43;;;;;;;14.45;11.32;;;;;;;12.89;66.94;96494.97;5021575;28;20588;-50
2021/04/02 09:17:13;;;;;;;15.40;11.52;;;;;;;13.02;68.46;96487.44;5001228;28;20076;-48
2021/04/02 09:19:42;;;;;;;14.40;11.40;;;;;;;13.23;67.25;96484.34;5021523;28;20065;-50
2021/04/02 09:22:10;;;;;;;16.27;11.52;;;;;;;13.39;68.45;96480.97;4996846;28;20518;-53
2021/04/02 09:24:40;;;;;;;17.67;12.85;;;;;;;13.32;65.18;96482.63;5030644;28;20499;-53
2021/04/02 09:27:09;;;;;;;16.13;11.77;;;;;;;13.82;62.60;96481.69;5001603;28;20072;-53
2021/04/02 09:29:36;;;;;;;13.90;10.82;;;;;;;13.63;67.22;96471.44;5016724;28;20068;-54
2021/04/02 09:32:05;;;;;;;19.02;12.43;;;;;;;13.58;63.60;96468.44;5001459;28;20439;-50
2021/04/02 09:34:33;;;;;;;14.65;11.70;;;;;;;13.37;67.80;96472.34;5023444;28;20061;-48
2021/04/02 09:37:02;;;;;;;17.08;12.07;;;;;;;13.47;64.91;96466.91;4998463;28;22963;-50
2021/04/02 09:39:30;;;;;;;20.13;14.80;;;;;;;13.64;62.34;96465.13;5025294;28;20076;-52
2021/04/02 09:42:00;;;;;;;17.67;13.63;;;;;;;13.73;65.52;96461.50;5012323;28;20084;-51
2021/04/02 09:44:30;;;;;;;16.45;12.77;;;;;;;13.29;69.75;96459.91;5028893;28;20072;-46
2021/04/02 09:47:02;;;;;;;19.58;13.45;;;;;;;13.45;66.96;96461.75;5029523;28;20448;-49
2021/04/02 09:49:31;;;;;;;18.48;12.88;;;;;;;13.73;65.72;96454.38;5015336;28;20064;-48
2021/04/02 09:51:59;;;;;;;17.20;13.25;;;;;;;14.04;64.66;96447.56;5016178;28;20069;-52
2021/04/02 09:54:30;;;;;;;20.05;13.07;;;;;;;13.61;68.05;96447.72;4983625;28;20061;-51
2021/04/02 09:56:59;;;;;;;20.63;13.32;;;;;;;13.17;71.67;96450.56;5022716;28;20100;-49
2021/04/02 09:59:27;;;;;;;17.02;13.30;;;;;;;13.90;66.02;96444.63;4993268;28;20358;-48
2021/04/02 10:01:54;;;;;;;19.23;12.75;;;;;;;13.41;69.79;96449.00;5021330;28;20507;-51
2021/04/02 10:04:23;;;;;;;19.77;13.50;;;;;;;13.12;70.44;96446.78;4997877;28;20068;-51
2021/04/02 10:06:50;;;;;;;19.27;13.27;;;;;;;14.05;64.88;96436.00;5028001;28;20068;-51
2021/04/02 10:09:18;;;;;;;18.70;13.93;;;;;;;13.64;69.72;96443.94;4998295;28;20073;-50
2021/04/02 10:11:48;;;;;;;20.02;14.70;;;;;;;13.76;73.96;96427.56;5021168;28;20077;-52
2021/04/02 10:14:16;;;;;;;18.88;14.02;;;;;;;14.22;75.15;96414.59;5008815;28;20072;-48
2021/04/02 10:16:45;;;;;;;20.88;15.25;;;;;;;14.83;67.64;96417.59;5019432;28;20068;-48
2021/04/02 10:19:13;;;;;;;22.92;14.85;;;;;;;15.19;62.34;96414.44;4999017;28;20065;-53
2021/04/02 10:21:41;;;;;;;20.80;15.25;;;;;;;14.93;67.62;96415.56;5027866;28;20065;-49
2021/04/02 10:24:09;;;;;;;21.67;14.65;;;;;;;14.33;68.65;96413.41;4999478;28;20081;-49
2021/04/02 10:26:37;;;;;;;19.50;14.55;;;;;;;14.89;65.74;96408.09;5027149;28;20069;-55
2021/04/02 10:29:05;;;;;;;24.33;15.40;;;;;;;14.80;70.39;96409.16;4995166;28;22436;-51
2021/04/02 10:31:33;;;;;;;21.02;15.25;;;;;;;14.54;68.68;96401.44;5026327;28;20060;-54
2021/04/02 10:34:01;;;;;;;20.75;15.38;;;;;;;14.09;76.54;96405.50;5009214;28;20088;-49
2021/04/02 10:36:28;;;;;;;21.83;15.68;;;;;;;14.61;72.69;96405.06;5025077;28;20068;-54
2021/04/02 10:38:55;;;;;;;24.70;16.70;;;;;;;14.27;71.70;96403.47;5027725;28;20073;-54
2021/04/02 10:41:23;;;;;;;19.60;12.88;;;;;;;14.21;74.66;96406.78;5005689;28;20065;-55
2021/04/02 10:43:51;;;;;;;20.50;15.18;;;;;;;14.95;70.06;96402.94;5023258;28;20064;-51
2021/04/02 10:46:19;;;;;;;23.67;15.57;;;;;;;15.12;62.22;96403.69;4996384;28;20080;-51
2021/04/02 10:48:47;;;;;;;22.10;14.82;;;;;;;14.19;68.96;96399.00;5029760;28;20061;-54
2021/04/02 10:51:14;;;;;;;21.15;15.38;;;;;;;14.68;67.19;96390.09;5006044;28;20077;-50
2021/04/02 10:53:42;;;;;;;21.55;15.15;;;;;;;14.48;67.68;96395.78;5030915;28;20084;-52
2021/04/02 10:56:09;;;;;;;20.25;13.77;;;;;;;14.50;68.96;96393.00;5006230;28;20449;-49
2021/04/02 10:58:37;;;;;;;22.52;15.10;;;;;;;14.90;65.36;96391.16;5029800;28;20487;-54
2021/04/02 11:01:04;;;;;;;22.17;15.20;;;;;;;14.63;67.20;96389.81;5004851;28;20069;-55
2021/04/02 11:03:32;;;;;;;20.95;14.93;;;;;;;14.57;67.26;96388.66;5026317;28;20472;-55
2021/04/02 11:06:00;;;;;;;20.08;13.13;;;;;;;14.47;64.50;96386.16;5001912;28;20077;-55
2021/04/02 11:08:27;;;;;;;19.15;13.27;;;;;;;14.48;64.16;96394.94;5029026;28;20073;-55
2021/04/02 11:10:55;;;;;;;22.40;14.27;;;;;;;14.51;63.79;96384.03;5006957;28;20065;-56
2021/04/02 11:13:23;;;;;;;19.30;13.68;;;;;;;14.37;65.69;96374.09;5034372;28;20064;-56
2021/04/02 11:15:50;;;;;;;16.67;10.73;;;;;;;14.14;60.16;96380.13;5008547;28;22676;-51
2021/04/02 11:18:17;;;;;;;19.60;13.15;;;;;;;14.48;63.58;96371.06;5030110;28;20061;-55
2021/04/02 11:20:46;;;;;;;16.10;11.73;;;;;;;14.16;61.76;96388.72;5009851;28;20542;-52
2021/04/02 11:23:16;;;;;;;19.15;12.55;;;;;;;14.75;61.01;96375.16;5021992;28;20080;-52
2021/04/02 11:25:44;;;;;;;19.05;11.63;;;;;;;14.54;57.44;96372.25;5026125;28;20072;-49